Friday, April 20, 2018, 6:10 AM EDT
Back to Local

KGTB, Fort Drum / Wheeler-sack U. S. Army Airfield

Location: Fort Drum, NY, United States Lat: 44.05
Local Time: 6:10 AM EDT (10:10 GMT) Lon: -75.733
Time Zone: US/Eastern Elev: 679 ft

Show me the last for .
Show Decoded

2018-04-20 05:26 METAR KGTB 200926Z AUTO 29004KT 10SM OVC032 M02/M05 A3011 RMK AO2 SLP205 =
2018-04-20 04:56 METAR KGTB 200856Z AUTO 27003KT 10SM OVC029 M02/M05 A3011 RMK AO2 SLP205
                 T10171052 52016 =
2018-04-20 04:36 METAR KGTB 200836Z AUTO 28004KT 10SM OVC029 M02/M05 A3010 RMK AO2 SLP201 =
2018-04-20 03:56 METAR KGTB 200756Z AUTO 29004KT 10SM OVC038 M01/M05 A3009 RMK AO2 SLP198
                 T10151054 =
2018-04-20 02:56 METAR KGTB 200656Z AUTO 29005KT 10SM FEW026 OVC042 M02/M05 A3007 RMK AO2 SLP192
                 T10161053 =
2018-04-20 01:56 METAR KGTB 200556Z AUTO 31007KT 10SM FEW025 FEW034 OVC047 M01/M05 A3006 RMK AO2
                 UPB21E26 SLP188 P0000 60000 T10101051 11006 21014 52011 =
2018-04-20 01:46 METAR KGTB 200546Z AUTO 31007KT 10SM SCT025 SCT035 OVC047 M01/M05 A3006 RMK AO2
                 UPB21E26 SLP188 =
2018-04-20 01:26 METAR KGTB 200526Z AUTO 31007KT 10SM OVC023 M01/M05 A3006 RMK AO2 UPB21E26
                 SLP188 =
2018-04-20 01:21 METAR KGTB 200521Z AUTO 32005KT 10SM -UP OVC023 M01/M05 A3006 RMK AO2 UPB21
                 SLP188 =
2018-04-20 00:56 METAR KGTB 200456Z AUTO 31008KT 10SM OVC023 M01/M04 A3005 RMK AO2 UPE04 SLP184
                 P0000 T10101045 400171014 =
2018-04-20 00:34 METAR KGTB 200434Z AUTO 32008KT 10SM OVC021 M01/M04 A3004 RMK AO2 UPE04 SLP181 =
2018-04-20 00:14 METAR KGTB 200414Z AUTO 31008KT 10SM OVC016 M01/M04 A3004 RMK AO2 UPE04 CIG
                 012V016 SLP181 =
2018-04-20 00:04 METAR KGTB 200404Z AUTO 29006KT 10SM OVC013 M01/M04 A3003 RMK AO2 UPE04 SLP177 =
2018-04-19 23:56 METAR KGTB 200356Z AUTO 30006KT 10SM -UP OVC011 M01/M04 A3003 RMK AO2 SNE44UPB44
                 SLP177 P0000 T10121036 =
2018-04-19 22:56 METAR KGTB 200256Z AUTO 30008KT 10SM -SN OVC010 M01/M03 A3003 RMK AO2 SNE51SNB54
                 SLP177 P0000 60000 T10131033 51020 =
2018-04-19 22:54 METAR KGTB 200254Z AUTO 30007KT 10SM -SN OVC010 M01/M03 A3002 RMK AO2 SNE51SNB54
                 SLP174 =
2018-04-19 22:51 METAR KGTB 200251Z AUTO 31006KT 10SM OVC010 M01/M03 A3002 RMK AO2 SNE51 SLP174 =
2018-04-19 22:36 METAR KGTB 200236Z AUTO 30006KT 10SM -SN FEW006 OVC011 M01/M03 A3003 RMK AO2 CIG
                 006V011 SLP177 =
2018-04-19 22:26 METAR KGTB 200226Z AUTO 31007KT 10SM -SN BKN008 OVC011 M01/M03 A3002 RMK AO2 CIG
                 006V008 SLP175 =
2018-04-19 22:16 METAR KGTB 200216Z AUTO 32007KT 7SM -SN BKN006 OVC013 M01/M03 A3002 RMK AO2
                 SLP175 =
2018-04-19 21:56 METAR KGTB 200156Z AUTO 32008KT 6SM -SN BKN005 BKN015 OVC025 M01/M03 A3002 RMK
                 AO2 SNE03UPB03E12SNB12E28UPB28E32SNB32 SLP175 P0000 T10101034 =
2018-04-19 21:49 METAR KGTB 200149Z AUTO 32008KT 5SM -SN BKN005 OVC023 M01/M04 A3002 RMK AO2
                 SNE03UPB03E12SNB12E28UPB28E32SNB32 CIG 005V024 BKN V SCT SLP175 =
2018-04-19 21:29 METAR KGTB 200129Z AUTO 32009KT 10SM -UP FEW007 BKN022 BKN029 M01/M04 A3001 RMK
                 AO2 SNE03UPB03E12SNB12E28UPB28 CIG 022V030 BKN022 V SCT SLP171 =
2018-04-19 21:06 METAR KGTB 200106Z AUTO 32009KT 10SM -UP FEW027 SCT034 M01/M04 A3000 RMK AO2
                 SNE03UPB03 SLP168 =
2018-04-19 20:56 METAR KGTB 200056Z AUTO 32008KT 10SM -SN FEW010 BKN028 OVC065 M01/M03 A3000 RMK
                 AO2 UPB32E45UPB50E54SNB54 CIG 026V037 BKN V SCT SLP168 P0000 T10071034 =
2018-04-19 20:50 METAR KGTB 200050Z AUTO 31006KT 10SM -UP FEW010 BKN026 BKN037 OVC075 M01/M03
                 A2999 RMK AO2 UPB32E45UPB50 CIG 026V037 BKN026 V SCT SLP164 =
2018-04-19 20:45 METAR KGTB 200045Z AUTO 32006KT 10SM SCT023 SCT028 BKN037 OVC075 M01/M03 A2999
                 RMK AO2 UPB32E45 SLP164 =
2018-04-19 20:32 METAR KGTB 200032Z AUTO 32006KT 10SM -UP FEW013 FEW024 BKN039 BKN050 OVC080
                 M01/M03 A2998 RMK AO2 UPB32 SLP161 =
2018-04-19 20:16 METAR KGTB 200016Z AUTO 29004KT 10SM FEW011 SCT027 SCT032 BKN041 BKN050 OVC070
                 M01/M03 A2998 RMK AO2 SLP161 =
2018-04-19 20:06 METAR KGTB 200006Z AUTO 32006KT 10SM SCT006 SCT012 BKN027 BKN035 BKN049 OVC070
                 M01/M03 A2997 RMK AO2 CIG 027V035 BKN027 V SCT SLP158 =
2018-04-19 19:56 METAR KGTB 192356Z AUTO 32007KT 10SM FEW002 BKN006 OVC031 M01/M03 A2996 RMK AO2
                 UPB06E07RAB07E15SNB15E36UPB36E42 SLP154 P0000 60001 T10091028 10017 21009 52032
                 =
2018-04-19 19:52 METAR KGTB 192352Z AUTO 32005KT 10SM BKN006 OVC031 M01/M03 A2996 RMK AO2
                 UPB06E07RAB07E15SNB15E36UPB36E42 SLP154 =
2018-04-19 19:42 METAR KGTB 192342Z AUTO 33007KT 9SM OVC005 M01/M02 A2996 RMK AO2
                 UPB06E07RAB07E15SNB15E36UPB36E42 SLP154 =
2018-04-19 19:35 METAR KGTB 192335Z AUTO 33007KT 3SM -SN BR BKN004 BKN017 OVC050 M01/M02 A2996
                 RMK AO2 UPB06E07RAB07E15SNB15 SLP154 =
2018-04-19 19:25 METAR KGTB 192325Z AUTO 33010KT 4SM -SN SCT005 BKN017 BKN031 OVC044 00/M03 A2995
                 RMK AO2 UPB06E07RAB07E15SNB15 CIG 004V028 BKN017 V SCT SLP151 =
2018-04-19 19:15 METAR KGTB 192315Z AUTO 33005KT 10SM -SN FEW006 FEW014 SCT020 BKN026 BKN034
                 OVC044 00/M03 A2994 RMK AO2 UPB06E07RAB07E15SNB15 CIG 026V044 SLP147 =
2018-04-19 19:07 METAR KGTB 192307Z AUTO 34006KT 10SM -UP SCT021 SCT029 OVC044 00/M03 A2994 RMK
                 AO2 UPB06 SLP147 =
2018-04-19 19:06 METAR KGTB 192306Z AUTO 34005KT 10SM SCT021 SCT029 OVC044 00/M03 A2994 RMK AO2
                 SLP147 =
2018-04-19 18:56 METAR KGTB 192256Z AUTO 35006KT 10SM FEW005 BKN026 BKN032 OVC045 00/M03 A2993
                 RMK AO2 RAE01DZB01E03RAB03E13DZB13E14RAB14E20SNB20E43UPB43E54 SLP143 P0000
                 T00001032 =
2018-04-19 18:54 METAR KGTB 192254Z AUTO 34005KT 10SM FEW003 SCT007 BKN026 BKN032 OVC045 00/M03
                 A2993 RMK AO2 RAE01DZB01E03RAB03E13DZB13E14RAB14E20SNB20E43UPB43E54 SLP143 =
2018-04-19 18:52 METAR KGTB 192252Z AUTO 34005KT 10SM -UP FEW003 SCT007 BKN023 BKN029 OVC047
                 00/M03 A2993 RMK AO2 RAE01DZB01E03RAB03E13DZB13E14RAB14E20SNB20E43UPB43 CIG
                 007V025 SLP143 =
2018-04-19 18:42 METAR KGTB 192242Z AUTO 34007KT 9SM -SN SCT003 BKN007 BKN012 BKN022 BKN026
                 OVC030 00/M03 A2993 RMK AO2 RAE01DZB01E03RAB03E13DZB13E14RAB14E20SNB20 CIG
                 005V007 SLP143 =
2018-04-19 18:32 METAR KGTB 192232Z AUTO 33007KT 5SM -SN SCT004 BKN012 BKN020 OVC026 00/M03 A2992
                 RMK AO2 RAE01DZB01E03RAB03E13DZB13E14RAB14E20SNB20 CIG 012V021 BKN012 V SCT
                 SLP140 =
2018-04-19 18:12 METAR KGTB 192212Z AUTO 33010KT 10SM -RA FEW007 FEW012 OVC022 01/M03 A2991 RMK
                 AO2 RAE01DZB01E03RAB03 SLP137 =
2018-04-19 17:56 METAR KGTB 192156Z AUTO 34009KT 10SM -RA BKN021 BKN046 01/M04 A2990 RMK AO2
                 RAB05E25DZB25E26RAB26E40DZB40E41DZB49E50RAB50 CIG 021V047 SLP133 P0000 T00061037
                 =
2018-04-19 17:49 METAR KGTB 192149Z AUTO 33009G16KT 10SM -DZ SCT022 SCT029 SCT038 OVC046 01/M04
                 A2990 RMK AO2 RAB05E25DZB25E26RAB26E40DZB40E41DZB49 SLP133 =
2018-04-19 17:41 METAR KGTB 192141Z 33008KT 9SM SCT028 SCT038 BKN044 OVC050 01/M03 A2989 RMK AO2A
                 TWR VIS 2 1/2 RAB05E25DZB25E26RAB26E40DZB40E41 SLP130 =
2018-04-19 17:35 METAR KGTB 192135Z 34011G16KT 10SM -RA SCT026 BKN037 OVC044 00/M04 A2989 RMK
                 AO2A TWR VIS 2 1/2 RAB05E25DZB25E26RAB26 SLP130 =
2018-04-19 17:05 METAR KGTB 192105Z 36008KT 10SM -RA BKN024 OVC031 01/M04 A2988 RMK AO2A TWR VIS
                 2 1/2 RAB05 SLP126 =
2018-04-19 16:56 METAR KGTB 192056Z 33011G16KT 10SM BKN024 OVC038 01/M04 A2987 RMK AO2A TWR VIS 2
                 1/2 RAE05SNB05E25 SLP123 P0000 60001 T00141037 52017 =
2018-04-19 16:35 METAR KGTB 192035Z 33011KT 10SM SCT015 BKN026 BKN038 OVC048 02/M04 A2986 RMK
                 AO2A TWR VIS 2 1/2 RAE05SNB05E25 CIG 015V026 SLP119 =
2018-04-19 16:25 METAR KGTB 192025Z COR 34010KT 10SM BKN015 BKN024 OVC031 02/M03 A2986 RMK AO2A
                 TWR VIS 2 1/2 RAE05SNB05E25 SLP119 COR 2026 =
2018-04-19 16:06 METAR KGTB 192006Z 33012G16KT 10SM -SN BKN013 BKN021 BKN027 OVC038 01/M02 A2986
                 RMK AO2A TWR VIS 4000 RAE05SNB05 CIG 013V021 BKN013 V SCT SLP119 =
2018-04-19 15:56 METAR KGTB 191956Z COR 31010G19KT 9SM -RA SCT015 BKN021 BKN028 OVC034 02/M02
                 A2985 RMK AO2 TWR VIS 4000 SNE27SNB38E39RAB39E49RAB53 SLP116 P0000 T00151025 COR
                 2013 =
2018-04-19 15:53 METAR KGTB 191953Z AUTO 31010G19KT 8SM -RA FEW015 BKN021 BKN028 OVC034 01/M03
                 A2985 RMK AO2 SNE27SNB38E39RAB39E49RAB53 SLP116 =
2018-04-19 15:49 METAR KGTB 191949Z AUTO 33015G19KT 10SM BKN019 BKN028 OVC034 02/M03 A2985 RMK
                 AO2 SNE27SNB38E39RAB39E49 SLP116 =
2018-04-19 15:48 METAR KGTB 191948Z AUTO 33016G19KT 10SM -RA BKN019 OVC028 02/M03 A2985 RMK AO2
                 SNE27SNB38E39RAB39 SLP116 =
2018-04-19 15:38 METAR KGTB 191938Z COR 34010KT 10SM -SN FEW003 SCT015 BKN022 OVC027 02/M03 A2985
                 RMK AO2A TWR VIS 2 1/2 SNE27SNB38 SLP116 COR 1942 =
2018-04-19 15:06 METAR KGTB 191906Z 34010KT 9SM -SN BKN007 OVC014 01/M02 A2984 RMK AO2A TWR VIS 2
                 1/2 SLP112 =
2018-04-19 14:56 METAR KGTB 191856Z 32006KT 5SM -SN BR BKN008 OVC015 01/M02 A2984 RMK AO2A TWR
                 VIS 2 1/2 CIG 008V013 SLP112 P0001 T00051016 =
2018-04-19 13:56 METAR KGTB 191756Z 32010KT 3SM -SN SCT004 BKN013 BKN022 OVC038 01/M02 A2982 RMK
                 AO2A TWR VIS 2 1/2 SNE06RAB06E07SNB07 CIG 013V025 BKN013 V SCT SLP105 P0001
                 60001 T00091018 10009 21012 52015 =
2018-04-19 13:36 METAR KGTB 191736Z 31008KT 4SM -SN FEW004 BKN019 BKN029 OVC038 01/M02 A2981 RMK
                 TWR VIS 2 1/2 SNE06RAB06E07SNB07 SLP102 =
2018-04-19 13:09 METAR KGTB 191709Z AUTO 32008KT 10SM -SN FEW006 BKN019 OVC029 01/M03 A2980 RMK
                 AO2 SNE06RAB06E07SNB07 CIG 019V029 BKN V SCT SLP099 =
2018-04-19 13:06 METAR KGTB 191706Z AUTO 31007KT 10SM -SN BKN019 OVC029 01/M03 A2980 RMK AO2 CIG
                 019V029 BKN V SCT SLP099 =
2018-04-19 12:56 METAR KGTB 191656Z AUTO 31007KT 9SM -SN SCT021 OVC029 01/M03 A2980 RMK AO2
                 UPB05E07RAB07E18SNB18 SLP099 P0000 T00071030 =
2018-04-19 12:05 METAR KGTB 191605Z AUTO 31007KT 10SM -UP OVC025 01/M03 A2979 RMK AO2 UPB05 CIG
                 024 RWY21 SLP095 =
2018-04-19 11:56 METAR KGTB 191556Z AUTO 32006KT 10SM OVC025 01/M03 A2978 RMK AO2 UPB46E55 SLP092
                 P0000 T00071030 =
2018-04-19 11:46 METAR KGTB 191546Z AUTO 33005KT 10SM -UP BKN022 BKN029 OVC035 01/M03 A2978 RMK
                 AO2 UPB46 CIG 020V025 SLP092 =
2018-04-19 10:56 METAR KGTB 191456Z AUTO 34005KT 10SM SCT015 OVC028 00/M03 A2977 RMK AO2 SNB11E31
                 CIG 015V028 SLP088 6//// T00021027 53008 =
2018-04-19 10:51 METAR KGTB 191451Z AUTO 33006KT 10SM SCT015 OVC028 00/M03 A2977 RMK AO2 SNB11E31
                 CIG 013V028 SLP088 =
2018-04-19 10:31 METAR KGTB 191431Z AUTO 32007KT 10SM OVC012 00/M02 A2977 RMK AO2 SNB11E31 SLP088
                 =
2018-04-19 10:18 METAR KGTB 191418Z AUTO 32004KT 10SM -SN BKN010 BKN014 OVC019 00/M02 A2976 RMK
                 AO2 SNB11 SLP085 =
2018-04-19 10:06 METAR KGTB 191406Z AUTO 32006KT 10SM SCT009 BKN017 OVC027 00/M02 A2976 RMK AO2
                 CIG 008V017 BKN V OVC CIG 011 RWY21 SLP085 =
2018-04-19 09:56 METAR KGTB 191356Z AUTO 34005KT 10SM BKN008 OVC016 M01/M02 A2976 RMK AO2
                 SNE20SNB28E33SNB40E52 SLP086 T10061025 =
2018-04-19 09:52 METAR KGTB 191352Z AUTO 33005KT 10SM BKN008 OVC014 M01/M03 A2976 RMK AO2
                 SNE20SNB28E33SNB40E52 SLP086 =
2018-04-19 09:40 METAR KGTB 191340Z AUTO 36006KT 10SM -SN BKN008 BKN014 OVC027 M01/M03 A2975 RMK
                 AO2 SNE20SNB28E33SNB40 SLP082 =
2018-04-19 09:33 METAR KGTB 191333Z AUTO 34005KT 10SM BKN008 BKN012 OVC027 M01/M03 A2975 RMK AO2
                 SNE20SNB28E33 CIG 008V010 SLP082 =
2018-04-19 09:28 METAR KGTB 191328Z AUTO 35004KT 10SM -SN BKN008 BKN012 OVC027 M01/M03 A2975 RMK
                 AO2 SNE20SNB28 CIG 008V010 SLP082 =
2018-04-19 09:20 METAR KGTB 191320Z AUTO 36007KT 10SM BKN008 BKN013 OVC025 M01/M03 A2975 RMK AO2
                 SNE20 SLP082 =
2018-04-19 09:06 METAR KGTB 191306Z AUTO 35006KT 10SM -SN BKN008 BKN013 OVC022 M01/M03 A2975 RMK
                 AO2 CIG 006V008 SLP082 =
2018-04-19 08:56 METAR KGTB 191256Z AUTO 34004KT 9SM -SN BKN006 OVC020 M01/M03 A2975 RMK AO2 CIG
                 006V023 BKN V SCT SLP082 T10111028 =
2018-04-19 08:54 METAR KGTB 191254Z AUTO 34005KT 9SM -SN SCT006 BKN010 OVC020 M01/M03 A2975 RMK
                 AO2 CIG 006V023 BKN V SCT SLP082 =
2018-04-19 07:56 METAR KGTB 191156Z 36004KT 10SM -SN SCT011 BKN020 OVC047 M01/M03 A2975 RMK AO2A
                 SNB01E50SNB53 BKN V OVC SLP082 P0000 60002 70006 T10111028 10006 21011 52011 =
2018-04-19 07:53 METAR KGTB 191153Z 35005KT 10SM -SN SCT011 BKN020 OVC047 M01/M03 A2975 RMK AO2A
                 SNB01E50SNB53 BKN V OVC SLP082 =
2018-04-19 07:50 METAR KGTB 191150Z 34006KT 10SM FEW007 SCT011 OVC020 M01/M03 A2975 RMK AO2A
                 SNB01E50 OVC V BKN SLP082 =
2018-04-19 07:41 METAR KGTB 191141Z 36007KT 9SM -SN SCT007 BKN018 BKN026 OVC047 M01/M03 A2974 RMK
                 AO2A SNB01 CIG 007V018 BKN018 V OVC SLP078 =
2018-04-19 07:21 METAR KGTB 191121Z 36009KT 9SM -SN OVC007 M01/M03 A2974 RMK AO2A SNB01 SLP078 =
2018-04-19 07:11 METAR KGTB 191111Z 02007KT 9SM -SN BKN006 OVC024 M01/M03 A2974 RMK AO2A SNB01
                 SLP078 =
2018-04-19 07:01 METAR KGTB 191101Z 01007KT 10SM -SN OVC005 M01/M03 A2974 RMK AO2A SNB01 SLP078 =
2018-04-19 06:56 METAR KGTB 191056Z 01007KT 10SM OVC005 M01/M02 A2974 RMK AO2A
                 SNE05UPB05E06SNB06E17UPB17E28DZB28E39 SLP078 P0000 T10091025 =
2018-04-19 06:39 METAR KGTB 191039Z 36005KT 10SM OVC005 M01/M02 A2974 RMK AO2A
                 SNE05UPB05E06SNB06E17UPB17E28DZB28E39 SLP078 =
2018-04-19 06:16 METAR KGTB 191016Z 33005KT 9SM -SN BKN005 BKN025 OVC035 M01/M02 A2974 RMK AO2A
                 SNE05UPB05E06SNB06 CIG 005V026 PRESRR SLP078 =

Support USWX by starting your Amazon purchase here.